sensor_id;sensor_type;location;lat;lon;timestamp;pressure;altitude;pressure_sealevel;temperature;humidity
62038;BME280;47991;42.974;12.082;2022-12-20T00:01:29;99220.38;;;2.79;87.04
62038;BME280;47991;42.974;12.082;2022-12-20T00:03:59;99230.33;;;2.72;87.78
62038;BME280;47991;42.974;12.082;2022-12-20T00:06:28;99228.02;;;2.65;88.18
62038;BME280;47991;42.974;12.082;2022-12-20T00:08:58;99228.80;;;2.54;88.03
62038;BME280;47991;42.974;12.082;2022-12-20T00:11:27;99233.13;;;2.53;88.30
62038;BME280;47991;42.974;12.082;2022-12-20T00:13:58;99228.35;;;2.38;88.88
62038;BME280;47991;42.974;12.082;2022-12-20T00:16:27;99228.63;;;2.41;88.81
62038;BME280;47991;42.974;12.082;2022-12-20T00:18:59;99223.64;;;2.51;88.57
62038;BME280;47991;42.974;12.082;2022-12-20T00:21:28;99221.74;;;2.57;88.52
62038;BME280;47991;42.974;12.082;2022-12-20T00:23:58;99226.69;;;2.66;88.24
62038;BME280;47991;42.974;12.082;2022-12-20T00:26:28;99224.30;;;2.76;88.16
62038;BME280;47991;42.974;12.082;2022-12-20T00:28:58;99215.77;;;2.84;87.67
62038;BME280;47991;42.974;12.082;2022-12-20T00:31:29;99218.45;;;2.85;87.82
62038;BME280;47991;42.974;12.082;2022-12-20T00:33:58;99212.67;;;2.92;87.70
62038;BME280;47991;42.974;12.082;2022-12-20T00:36:28;99209.69;;;2.98;87.43
62038;BME280;47991;42.974;12.082;2022-12-20T00:38:57;99210.02;;;2.97;87.29
62038;BME280;47991;42.974;12.082;2022-12-20T00:41:28;99207.69;;;2.88;87.54
62038;BME280;47991;42.974;12.082;2022-12-20T00:43:57;99209.86;;;2.91;87.45
62038;BME280;47991;42.974;12.082;2022-12-20T00:46:25;99211.23;;;2.91;87.49
62038;BME280;47991;42.974;12.082;2022-12-20T00:48:54;99206.48;;;2.82;87.62
62038;BME280;47991;42.974;12.082;2022-12-20T00:51:28;99202.95;;;2.88;88.01
62038;BME280;47991;42.974;12.082;2022-12-20T00:53:56;99203.48;;;2.88;87.89
62038;BME280;47991;42.974;12.082;2022-12-20T00:56:23;99199.96;;;2.93;87.92
62038;BME280;47991;42.974;12.082;2022-12-20T00:59:16;99199.89;;;2.90;87.51
62038;BME280;47991;42.974;12.082;2022-12-20T01:01:45;99196.88;;;2.89;87.83
62038;BME280;47991;42.974;12.082;2022-12-20T01:04:13;99199.34;;;2.90;87.60
62038;BME280;47991;42.974;12.082;2022-12-20T01:06:42;99196.48;;;2.87;87.34
62038;BME280;47991;42.974;12.082;2022-12-20T01:09:11;99199.30;;;2.88;87.57
62038;BME280;47991;42.974;12.082;2022-12-20T01:11:38;99202.15;;;2.90;87.30
62038;BME280;47991;42.974;12.082;2022-12-20T01:14:10;99199.64;;;2.88;86.96
62038;BME280;47991;42.974;12.082;2022-12-20T01:16:42;99199.60;;;2.72;87.08
62038;BME280;47991;42.974;12.082;2022-12-20T01:19:13;99199.03;;;2.51;87.77
62038;BME280;47991;42.974;12.082;2022-12-20T01:21:43;99196.73;;;2.43;88.29
62038;BME280;47991;42.974;12.082;2022-12-20T01:24:16;99199.44;;;2.47;88.14
62038;BME280;47991;42.974;12.082;2022-12-20T01:26:45;99195.12;;;2.55;88.18
62038;BME280;47991;42.974;12.082;2022-12-20T01:29:13;99198.19;;;2.59;88.03
62038;BME280;47991;42.974;12.082;2022-12-20T01:31:43;99197.52;;;2.67;87.97
62038;BME280;47991;42.974;12.082;2022-12-20T01:34:11;99195.06;;;2.73;87.74
62038;BME280;47991;42.974;12.082;2022-12-20T01:36:38;99190.73;;;2.74;87.52
62038;BME280;47991;42.974;12.082;2022-12-20T01:39:13;99191.27;;;2.82;87.77
62038;BME280;47991;42.974;12.082;2022-12-20T01:41:43;99189.38;;;2.90;87.46
62038;BME280;47991;42.974;12.082;2022-12-20T01:46:47;99190.66;;;2.99;87.29
62038;BME280;47991;42.974;12.082;2022-12-20T01:49:26;99188.50;;;2.96;87.60
62038;BME280;47991;42.974;12.082;2022-12-20T01:52:03;99190.20;;;2.80;87.99
62038;BME280;47991;42.974;12.082;2022-12-20T01:54:37;99188.96;;;2.66;88.28
62038;BME280;47991;42.974;12.082;2022-12-20T01:57:08;99181.69;;;2.62;88.49
62038;BME280;47991;42.974;12.082;2022-12-20T01:59:39;99179.86;;;2.65;88.54
62038;BME280;47991;42.974;12.082;2022-12-20T02:02:10;99181.19;;;2.76;88.55
62038;BME280;47991;42.974;12.082;2022-12-20T02:04:39;99178.98;;;2.79;88.37
62038;BME280;47991;42.974;12.082;2022-12-20T02:07:11;99177.98;;;2.80;87.93
62038;BME280;47991;42.974;12.082;2022-12-20T02:09:44;99177.81;;;2.81;87.93
62038;BME280;47991;42.974;12.082;2022-12-20T02:12:25;99171.70;;;2.81;87.98
62038;BME280;47991;42.974;12.082;2022-12-20T02:18:20;99168.70;;;2.93;87.71
62038;BME280;47991;42.974;12.082;2022-12-20T02:29:29;99162.80;;;2.81;88.30
62038;BME280;47991;42.974;12.082;2022-12-20T02:34:46;99154.76;;;2.60;89.10
62038;BME280;47991;42.974;12.082;2022-12-20T02:37:13;99153.56;;;2.61;89.03
62038;BME280;47991;42.974;12.082;2022-12-20T02:39:43;99154.56;;;2.67;88.82
62038;BME280;47991;42.974;12.082;2022-12-20T02:42:17;99152.51;;;2.75;88.86
62038;BME280;47991;42.974;12.082;2022-12-20T02:44:58;99147.98;;;2.82;88.46
62038;BME280;47991;42.974;12.082;2022-12-20T02:47:57;99146.94;;;2.83;87.93
62038;BME280;47991;42.974;12.082;2022-12-20T02:50:31;99143.48;;;2.84;87.87
62038;BME280;47991;42.974;12.082;2022-12-20T02:53:04;99139.89;;;2.80;87.68
62038;BME280;47991;42.974;12.082;2022-12-20T02:55:45;99137.73;;;2.77;87.75
62038;BME280;47991;42.974;12.082;2022-12-20T02:58:35;99136.29;;;2.83;87.99
62038;BME280;47991;42.974;12.082;2022-12-20T03:01:15;99143.43;;;2.89;87.64
62038;BME280;47991;42.974;12.082;2022-12-20T03:03:44;99146.36;;;2.88;87.18
62038;BME280;47991;42.974;12.082;2022-12-20T03:06:12;99143.48;;;2.77;87.17
62038;BME280;47991;42.974;12.082;2022-12-20T03:08:40;99138.34;;;2.81;87.67
62038;BME280;47991;42.974;12.082;2022-12-20T03:11:07;99138.83;;;2.87;87.54
62038;BME280;47991;42.974;12.082;2022-12-20T03:13:35;99138.98;;;2.86;87.21
62038;BME280;47991;42.974;12.082;2022-12-20T03:16:08;99138.70;;;2.89;87.03
62038;BME280;47991;42.974;12.082;2022-12-20T03:18:37;99141.07;;;2.86;86.87
62038;BME280;47991;42.974;12.082;2022-12-20T03:21:05;99138.37;;;2.75;86.93
62038;BME280;47991;42.974;12.082;2022-12-20T03:23:32;99137.29;;;2.67;87.37
62038;BME280;47991;42.974;12.082;2022-12-20T03:26:00;99136.92;;;2.72;87.52
62038;BME280;47991;42.974;12.082;2022-12-20T03:28:32;99133.75;;;2.72;86.95
62038;BME280;47991;42.974;12.082;2022-12-20T03:31:00;99137.94;;;2.65;87.01
62038;BME280;47991;42.974;12.082;2022-12-20T03:33:28;99134.32;;;2.59;87.18
62038;BME280;47991;42.974;12.082;2022-12-20T03:35:58;99132.59;;;2.54;87.15
62038;BME280;47991;42.974;12.082;2022-12-20T03:38:26;99131.04;;;2.47;86.88
62038;BME280;47991;42.974;12.082;2022-12-20T03:40:53;99126.56;;;2.36;86.91
62038;BME280;47991;42.974;12.082;2022-12-20T03:43:21;99129.44;;;2.26;87.03
62038;BME280;47991;42.974;12.082;2022-12-20T03:45:49;99129.70;;;2.17;87.24
62038;BME280;47991;42.974;12.082;2022-12-20T03:48:16;99130.39;;;2.10;87.30
62038;BME280;47991;42.974;12.082;2022-12-20T03:50:45;99129.25;;;2.06;87.80
62038;BME280;47991;42.974;12.082;2022-12-20T03:53:13;99130.18;;;2.09;87.42
62038;BME280;47991;42.974;12.082;2022-12-20T03:55:40;99130.19;;;2.15;87.83
62038;BME280;47991;42.974;12.082;2022-12-20T03:58:08;99125.27;;;2.20;87.49
62038;BME280;47991;42.974;12.082;2022-12-20T04:00:38;99117.91;;;2.26;87.53
62038;BME280;47991;42.974;12.082;2022-12-20T04:03:22;99116.27;;;2.30;87.19
62038;BME280;47991;42.974;12.082;2022-12-20T04:05:49;99111.81;;;2.26;87.08
62038;BME280;47991;42.974;12.082;2022-12-20T04:08:17;99109.67;;;2.25;87.29
62038;BME280;47991;42.974;12.082;2022-12-20T04:10:45;99109.13;;;2.23;87.39
62038;BME280;47991;42.974;12.082;2022-12-20T04:13:34;99107.27;;;2.26;87.40
62038;BME280;47991;42.974;12.082;2022-12-20T04:16:03;99102.42;;;2.28;86.91
62038;BME280;47991;42.974;12.082;2022-12-20T04:18:32;99100.09;;;2.25;86.90
62038;BME280;47991;42.974;12.082;2022-12-20T04:21:00;99100.90;;;2.22;86.76
62038;BME280;47991;42.974;12.082;2022-12-20T04:23:30;99095.60;;;2.13;86.55
62038;BME280;47991;42.974;12.082;2022-12-20T04:25:59;99097.38;;;2.01;86.41
62038;BME280;47991;42.974;12.082;2022-12-20T04:28:28;99100.30;;;1.93;86.69
62038;BME280;47991;42.974;12.082;2022-12-20T04:30:57;99100.43;;;1.86;86.98
62038;BME280;47991;42.974;12.082;2022-12-20T04:33:26;99099.95;;;1.81;86.99
62038;BME280;47991;42.974;12.082;2022-12-20T04:35:54;99097.06;;;1.78;87.21
62038;BME280;47991;42.974;12.082;2022-12-20T04:38:23;99095.56;;;1.74;86.95
62038;BME280;47991;42.974;12.082;2022-12-20T04:40:53;99093.48;;;1.74;87.30
62038;BME280;47991;42.974;12.082;2022-12-20T04:43:21;99093.25;;;1.72;87.41
62038;BME280;47991;42.974;12.082;2022-12-20T04:45:51;99096.49;;;1.70;87.48
62038;BME280;47991;42.974;12.082;2022-12-20T04:48:20;99092.74;;;1.73;87.36
62038;BME280;47991;42.974;12.082;2022-12-20T04:50:48;99098.96;;;1.76;87.14
62038;BME280;47991;42.974;12.082;2022-12-20T04:53:16;99096.32;;;1.76;86.95
62038;BME280;47991;42.974;12.082;2022-12-20T04:56:03;99091.63;;;1.70;87.07
62038;BME280;47991;42.974;12.082;2022-12-20T04:58:31;99088.23;;;1.67;87.19
62038;BME280;47991;42.974;12.082;2022-12-20T05:00:59;99089.61;;;1.60;87.61
62038;BME280;47991;42.974;12.082;2022-12-20T05:03:27;99086.14;;;1.55;87.51
62038;BME280;47991;42.974;12.082;2022-12-20T05:05:55;99084.29;;;1.51;87.56
62038;BME280;47991;42.974;12.082;2022-12-20T05:08:23;99082.65;;;1.49;87.93
62038;BME280;47991;42.974;12.082;2022-12-20T05:10:53;99083.66;;;1.54;87.97
62038;BME280;47991;42.974;12.082;2022-12-20T05:13:21;99080.51;;;1.59;87.74
62038;BME280;47991;42.974;12.082;2022-12-20T05:15:53;99080.27;;;1.63;87.88
62038;BME280;47991;42.974;12.082;2022-12-20T05:18:25;99080.45;;;1.69;87.79
62038;BME280;47991;42.974;12.082;2022-12-20T05:21:03;99083.13;;;1.65;88.14
62038;BME280;47991;42.974;12.082;2022-12-20T05:23:52;99084.59;;;1.61;88.15
62038;BME280;47991;42.974;12.082;2022-12-20T05:27:17;99079.35;;;1.55;87.69
62038;BME280;47991;42.974;12.082;2022-12-20T05:29:44;99081.69;;;1.51;87.73
62038;BME280;47991;42.974;12.082;2022-12-20T05:32:12;99077.57;;;1.47;88.03
62038;BME280;47991;42.974;12.082;2022-12-20T05:34:41;99076.55;;;1.42;88.23
62038;BME280;47991;42.974;12.082;2022-12-20T05:37:08;99076.52;;;1.35;88.27
62038;BME280;47991;42.974;12.082;2022-12-20T05:39:37;99074.05;;;1.35;88.18
62038;BME280;47991;42.974;12.082;2022-12-20T05:42:08;99075.80;;;1.41;88.32
62038;BME280;47991;42.974;12.082;2022-12-20T05:44:37;99074.07;;;1.46;88.10
62038;BME280;47991;42.974;12.082;2022-12-20T05:47:04;99075.50;;;1.48;87.97
62038;BME280;47991;42.974;12.082;2022-12-20T05:49:34;99077.43;;;1.55;88.57
62038;BME280;47991;42.974;12.082;2022-12-20T05:52:02;99075.23;;;1.64;88.17
62038;BME280;47991;42.974;12.082;2022-12-20T05:54:31;99070.38;;;1.59;89.70
62038;BME280;47991;42.974;12.082;2022-12-20T05:57:06;99072.58;;;1.50;90.31
62038;BME280;47991;42.974;12.082;2022-12-20T05:59:37;99075.84;;;1.42;90.10
62038;BME280;47991;42.974;12.082;2022-12-20T06:02:06;99074.58;;;1.46;89.70
62038;BME280;47991;42.974;12.082;2022-12-20T06:04:34;99070.63;;;1.48;89.06
62038;BME280;47991;42.974;12.082;2022-12-20T06:07:05;99071.94;;;1.46;88.74
62038;BME280;47991;42.974;12.082;2022-12-20T06:09:33;99071.39;;;1.45;88.70
62038;BME280;47991;42.974;12.082;2022-12-20T06:12:21;99070.95;;;1.42;88.54
62038;BME280;47991;42.974;12.082;2022-12-20T06:14:50;99075.10;;;1.40;88.43
62038;BME280;47991;42.974;12.082;2022-12-20T06:17:18;99079.32;;;1.42;88.44
62038;BME280;47991;42.974;12.082;2022-12-20T06:19:47;99080.39;;;1.43;88.46
62038;BME280;47991;42.974;12.082;2022-12-20T06:22:16;99074.98;;;1.43;88.61
62038;BME280;47991;42.974;12.082;2022-12-20T06:24:52;99075.21;;;1.45;88.46
62038;BME280;47991;42.974;12.082;2022-12-20T06:27:23;99074.86;;;1.50;88.64
62038;BME280;47991;42.974;12.082;2022-12-20T06:30:08;99073.58;;;1.55;88.42
62038;BME280;47991;42.974;12.082;2022-12-20T06:32:48;99074.70;;;1.63;88.64
62038;BME280;47991;42.974;12.082;2022-12-20T06:35:16;99072.55;;;1.67;88.25
62038;BME280;47991;42.974;12.082;2022-12-20T06:37:43;99070.89;;;1.71;88.14
62038;BME280;47991;42.974;12.082;2022-12-20T06:40:12;99069.21;;;1.73;88.23
62038;BME280;47991;42.974;12.082;2022-12-20T06:42:41;99072.80;;;1.71;88.11
62038;BME280;47991;42.974;12.082;2022-12-20T06:45:11;99071.91;;;1.70;87.61
62038;BME280;47991;42.974;12.082;2022-12-20T06:47:38;99078.19;;;1.63;87.60
62038;BME280;47991;42.974;12.082;2022-12-20T06:50:07;99081.52;;;1.58;87.81
62038;BME280;47991;42.974;12.082;2022-12-20T06:52:34;99084.91;;;1.55;87.70
62038;BME280;47991;42.974;12.082;2022-12-20T06:55:02;99087.27;;;1.51;87.81
62038;BME280;47991;42.974;12.082;2022-12-20T06:57:32;99087.30;;;1.53;87.94
62038;BME280;47991;42.974;12.082;2022-12-20T07:00:00;99090.95;;;1.59;88.05
62038;BME280;47991;42.974;12.082;2022-12-20T07:02:27;99091.55;;;1.67;87.78
62038;BME280;47991;42.974;12.082;2022-12-20T07:04:55;99094.87;;;1.68;87.36
62038;BME280;47991;42.974;12.082;2022-12-20T07:07:23;99100.57;;;1.60;87.30
62038;BME280;47991;42.974;12.082;2022-12-20T07:09:50;99103.15;;;1.59;87.69
62038;BME280;47991;42.974;12.082;2022-12-20T07:12:17;99101.64;;;1.60;87.83
62038;BME280;47991;42.974;12.082;2022-12-20T07:14:45;99101.67;;;1.68;88.24
62038;BME280;47991;42.974;12.082;2022-12-20T07:17:13;99102.59;;;1.82;88.11
62038;BME280;47991;42.974;12.082;2022-12-20T07:19:41;99102.98;;;1.96;87.98
62038;BME280;47991;42.974;12.082;2022-12-20T07:22:09;99105.30;;;1.98;87.20
62038;BME280;47991;42.974;12.082;2022-12-20T07:24:36;99098.40;;;2.01;87.61
62038;BME280;47991;42.974;12.082;2022-12-20T07:27:04;99101.30;;;2.11;88.09
62038;BME280;47991;42.974;12.082;2022-12-20T07:29:32;99098.44;;;2.21;88.15
62038;BME280;47991;42.974;12.082;2022-12-20T07:31:59;99097.08;;;2.29;87.60
62038;BME280;47991;42.974;12.082;2022-12-20T07:34:27;99092.02;;;2.37;87.25
62038;BME280;47991;42.974;12.082;2022-12-20T07:36:54;99094.55;;;2.39;86.96
62038;BME280;47991;42.974;12.082;2022-12-20T07:39:22;99089.87;;;2.41;86.81
62038;BME280;47991;42.974;12.082;2022-12-20T07:41:54;99089.65;;;2.47;86.60
62038;BME280;47991;42.974;12.082;2022-12-20T07:44:23;99086.50;;;2.53;86.49
62038;BME280;47991;42.974;12.082;2022-12-20T07:46:50;99085.70;;;2.64;86.40
62038;BME280;47991;42.974;12.082;2022-12-20T07:49:18;99086.78;;;2.72;86.41
62038;BME280;47991;42.974;12.082;2022-12-20T07:51:48;99092.64;;;2.83;86.20
62038;BME280;47991;42.974;12.082;2022-12-20T07:54:20;99091.73;;;2.89;86.20
62038;BME280;47991;42.974;12.082;2022-12-20T07:56:56;99093.26;;;2.95;86.20
62038;BME280;47991;42.974;12.082;2022-12-20T07:59:34;99093.02;;;2.99;85.79
62038;BME280;47991;42.974;12.082;2022-12-20T08:02:04;99093.50;;;2.97;85.51
62038;BME280;47991;42.974;12.082;2022-12-20T08:04:32;99096.21;;;3.09;86.55
62038;BME280;47991;42.974;12.082;2022-12-20T08:07:00;99098.15;;;3.18;85.96
62038;BME280;47991;42.974;12.082;2022-12-20T08:09:30;99097.51;;;3.20;86.16
62038;BME280;47991;42.974;12.082;2022-12-20T08:12:01;99091.45;;;3.47;87.22
62038;BME280;47991;42.974;12.082;2022-12-20T08:14:29;99089.71;;;3.82;86.86
62038;BME280;47991;42.974;12.082;2022-12-20T08:16:56;99088.05;;;4.14;86.53
62038;BME280;47991;42.974;12.082;2022-12-20T08:19:25;99081.15;;;4.49;86.09
62038;BME280;47991;42.974;12.082;2022-12-20T08:21:53;99080.16;;;4.86;86.10
62038;BME280;47991;42.974;12.082;2022-12-20T08:24:20;99076.13;;;5.48;85.41
62038;BME280;47991;42.974;12.082;2022-12-20T08:26:48;99070.59;;;6.12;83.06
62038;BME280;47991;42.974;12.082;2022-12-20T08:29:15;99069.02;;;6.95;82.39
62038;BME280;47991;42.974;12.082;2022-12-20T08:31:43;99065.59;;;7.73;79.97
62038;BME280;47991;42.974;12.082;2022-12-20T08:34:10;99061.78;;;7.90;79.21
62038;BME280;47991;42.974;12.082;2022-12-20T08:36:38;99070.15;;;7.69;76.08
62038;BME280;47991;42.974;12.082;2022-12-20T08:39:06;99070.81;;;7.61;75.61
62038;BME280;47991;42.974;12.082;2022-12-20T08:41:34;99073.52;;;7.37;75.00
62038;BME280;47991;42.974;12.082;2022-12-20T08:44:05;99077.63;;;7.18;75.96
62038;BME280;47991;42.974;12.082;2022-12-20T08:46:33;99076.57;;;7.17;77.63
62038;BME280;47991;42.974;12.082;2022-12-20T08:49:04;99076.36;;;7.14;78.00
62038;BME280;47991;42.974;12.082;2022-12-20T08:51:32;99075.24;;;7.04;78.32
62038;BME280;47991;42.974;12.082;2022-12-20T08:53:59;99075.70;;;6.94;79.71
62038;BME280;47991;42.974;12.082;2022-12-20T08:56:28;99075.49;;;6.66;80.04
62038;BME280;47991;42.974;12.082;2022-12-20T08:58:56;99074.05;;;6.82;80.57
62038;BME280;47991;42.974;12.082;2022-12-20T09:01:24;99072.52;;;6.89;78.70
62038;BME280;47991;42.974;12.082;2022-12-20T09:03:53;99066.19;;;7.16;79.00
62038;BME280;47991;42.974;12.082;2022-12-20T09:06:21;99064.64;;;7.58;77.03
62038;BME280;47991;42.974;12.082;2022-12-20T09:08:50;99060.13;;;8.79;74.54
62038;BME280;47991;42.974;12.082;2022-12-20T09:11:20;99053.31;;;10.70;71.34
62038;BME280;47991;42.974;12.082;2022-12-20T09:13:48;99047.23;;;11.71;64.07
62038;BME280;47991;42.974;12.082;2022-12-20T09:16:19;99047.13;;;12.32;60.36
62038;BME280;47991;42.974;12.082;2022-12-20T09:18:52;99044.89;;;12.62;57.68
62038;BME280;47991;42.974;12.082;2022-12-20T09:21:20;99044.17;;;13.04;55.59
62038;BME280;47991;42.974;12.082;2022-12-20T09:23:53;99051.21;;;12.97;55.09
62038;BME280;47991;42.974;12.082;2022-12-20T09:26:22;99053.34;;;12.42;57.09
62038;BME280;47991;42.974;12.082;2022-12-20T09:28:50;99051.17;;;12.33;58.19
62038;BME280;47991;42.974;12.082;2022-12-20T09:31:21;99049.25;;;12.77;58.35
62038;BME280;47991;42.974;12.082;2022-12-20T09:33:55;99042.45;;;14.00;57.78
62038;BME280;47991;42.974;12.082;2022-12-20T09:36:26;99035.16;;;15.34;52.52
62038;BME280;47991;42.974;12.082;2022-12-20T09:38:54;99029.70;;;16.85;49.28
62038;BME280;47991;42.974;12.082;2022-12-20T09:43:58;99011.98;;;19.57;48.29
62038;BME280;47991;42.974;12.082;2022-12-20T09:46:25;99016.68;;;18.85;43.24
62038;BME280;47991;42.974;12.082;2022-12-20T09:48:55;99014.59;;;18.84;42.72
62038;BME280;47991;42.974;12.082;2022-12-20T10:00:15;99008.73;;;17.43;44.57
62038;BME280;47991;42.974;12.082;2022-12-20T10:02:43;99005.15;;;17.69;44.71
62038;BME280;47991;42.974;12.082;2022-12-20T10:05:24;99001.19;;;17.98;45.60
62038;BME280;47991;42.974;12.082;2022-12-20T10:08:10;98992.92;;;19.34;42.57
62038;BME280;47991;42.974;12.082;2022-12-20T10:10:58;98991.55;;;19.16;43.39
62038;BME280;47991;42.974;12.082;2022-12-20T10:24:16;98992.67;;;14.54;51.54
62038;BME280;47991;42.974;12.082;2022-12-20T10:26:48;98994.06;;;14.11;53.60
62038;BME280;47991;42.974;12.082;2022-12-20T10:29:17;98990.14;;;13.26;54.80
62038;BME280;47991;42.974;12.082;2022-12-20T10:31:53;98992.13;;;12.44;56.67
62038;BME280;47991;42.974;12.082;2022-12-20T10:34:25;98992.02;;;11.50;59.50
62038;BME280;47991;42.974;12.082;2022-12-20T10:37:12;98994.41;;;10.78;61.23
62038;BME280;47991;42.974;12.082;2022-12-20T10:39:46;98986.70;;;10.46;63.26
62038;BME280;47991;42.974;12.082;2022-12-20T10:42:37;98981.55;;;10.27;63.57
62038;BME280;47991;42.974;12.082;2022-12-20T10:45:27;98977.84;;;10.27;64.11
62038;BME280;47991;42.974;12.082;2022-12-20T10:47:59;98976.20;;;10.38;63.24
62038;BME280;47991;42.974;12.082;2022-12-20T10:50:27;98978.99;;;10.39;63.58
62038;BME280;47991;42.974;12.082;2022-12-20T10:53:19;98976.66;;;9.93;65.94
62038;BME280;47991;42.974;12.082;2022-12-20T10:56:15;98973.39;;;9.45;67.35
62038;BME280;47991;42.974;12.082;2022-12-20T10:58:54;98963.23;;;9.25;69.45
62038;BME280;47991;42.974;12.082;2022-12-20T11:01:25;98965.23;;;9.05;70.78
62038;BME280;47991;42.974;12.082;2022-12-20T11:04:21;98966.14;;;9.03;70.19
62038;BME280;47991;42.974;12.082;2022-12-20T11:06:52;98960.88;;;8.83;70.95
62038;BME280;47991;42.974;12.082;2022-12-20T11:14:35;98944.89;;;8.61;72.30
62038;BME280;47991;42.974;12.082;2022-12-20T11:19:52;98942.77;;;8.63;72.85
62038;BME280;47991;42.974;12.082;2022-12-20T11:27:34;98926.93;;;8.48;74.03
62038;BME280;47991;42.974;12.082;2022-12-20T11:30:29;98929.20;;;8.39;74.14
62038;BME280;47991;42.974;12.082;2022-12-20T11:33:29;98919.33;;;8.34;74.38
62038;BME280;47991;42.974;12.082;2022-12-20T11:38:57;98909.48;;;8.41;74.45
62038;BME280;47991;42.974;12.082;2022-12-20T11:41:40;98904.70;;;8.61;72.48
62038;BME280;47991;42.974;12.082;2022-12-20T11:47:11;98894.27;;;8.74;70.65
62038;BME280;47991;42.974;12.082;2022-12-20T11:49:57;98892.15;;;8.78;71.63
62038;BME280;47991;42.974;12.082;2022-12-20T12:00:18;98884.40;;;8.71;73.29
62038;BME280;47991;42.974;12.082;2022-12-20T12:03:34;98883.69;;;8.74;72.49
62038;BME280;47991;42.974;12.082;2022-12-20T12:09:13;98881.73;;;8.81;72.31
62038;BME280;47991;42.974;12.082;2022-12-20T12:11:50;98876.56;;;8.93;70.86
62038;BME280;47991;42.974;12.082;2022-12-20T12:16:58;98869.44;;;9.09;70.22
62038;BME280;47991;42.974;12.082;2022-12-20T12:19:32;98870.88;;;9.05;70.43
62038;BME280;47991;42.974;12.082;2022-12-20T12:22:07;98867.73;;;8.94;70.50
62038;BME280;47991;42.974;12.082;2022-12-20T12:24:44;98866.21;;;8.83;71.85
62038;BME280;47991;42.974;12.082;2022-12-20T12:27:25;98864.58;;;8.91;72.66
62038;BME280;47991;42.974;12.082;2022-12-20T12:29:54;98866.33;;;8.94;73.09
62038;BME280;47991;42.974;12.082;2022-12-20T12:32:36;98863.16;;;8.98;72.74
62038;BME280;47991;42.974;12.082;2022-12-20T12:44:48;98856.77;;;9.05;75.38
62038;BME280;47991;42.974;12.082;2022-12-20T12:46:42;98853.89;;;9.17;73.64
62038;BME280;47991;42.974;12.082;2022-12-20T12:49:15;98856.72;;;9.13;73.19
62038;BME280;47991;42.974;12.082;2022-12-20T12:51:50;98860.09;;;9.08;73.29
62038;BME280;47991;42.974;12.082;2022-12-20T12:54:27;98858.28;;;9.19;71.80
62038;BME280;47991;42.974;12.082;2022-12-20T12:57:21;98857.40;;;9.19;70.97
62038;BME280;47991;42.974;12.082;2022-12-20T12:59:49;98858.53;;;9.36;71.06
62038;BME280;47991;42.974;12.082;2022-12-20T13:02:21;98858.45;;;9.50;70.96
62038;BME280;47991;42.974;12.082;2022-12-20T13:04:56;98856.48;;;9.55;70.09
62038;BME280;47991;42.974;12.082;2022-12-20T13:20:39;98840.04;;;10.57;68.95
62038;BME280;47991;42.974;12.082;2022-12-20T13:25:41;98841.64;;;10.87;68.04
62038;BME280;47991;42.974;12.082;2022-12-20T13:33:48;98834.09;;;10.83;67.54
62038;BME280;47991;42.974;12.082;2022-12-20T13:38:53;98833.16;;;10.73;67.92
62038;BME280;47991;42.974;12.082;2022-12-20T13:41:32;98830.98;;;10.62;68.71
62038;BME280;47991;42.974;12.082;2022-12-20T13:49:25;98833.30;;;10.04;70.70
62038;BME280;47991;42.974;12.082;2022-12-20T13:52:13;98830.07;;;9.90;71.77
62038;BME280;47991;42.974;12.082;2022-12-20T13:54:45;98829.44;;;9.82;72.76
62038;BME280;47991;42.974;12.082;2022-12-20T13:57:43;98826.86;;;9.73;72.67
62038;BME280;47991;42.974;12.082;2022-12-20T14:00:24;98827.52;;;9.54;74.02
62038;BME280;47991;42.974;12.082;2022-12-20T14:02:52;98822.09;;;9.49;74.10
62038;BME280;47991;42.974;12.082;2022-12-20T14:05:22;98821.14;;;9.58;73.08
62038;BME280;47991;42.974;12.082;2022-12-20T14:08:19;98821.23;;;9.69;72.75
62038;BME280;47991;42.974;12.082;2022-12-20T14:10:47;98821.39;;;9.73;73.24
62038;BME280;47991;42.974;12.082;2022-12-20T14:13:21;98818.10;;;9.63;73.68
62038;BME280;47991;42.974;12.082;2022-12-20T14:15:49;98812.55;;;9.52;74.37
62038;BME280;47991;42.974;12.082;2022-12-20T14:18:22;98813.54;;;9.35;75.00
62038;BME280;47991;42.974;12.082;2022-12-20T14:21:00;98809.02;;;9.26;75.26
62038;BME280;47991;42.974;12.082;2022-12-20T14:23:46;98808.15;;;9.22;75.39
62038;BME280;47991;42.974;12.082;2022-12-20T14:26:17;98803.23;;;9.17;75.16
62038;BME280;47991;42.974;12.082;2022-12-20T14:28:51;98806.42;;;9.17;74.31
62038;BME280;47991;42.974;12.082;2022-12-20T14:36:32;98806.84;;;9.34;73.88
62038;BME280;47991;42.974;12.082;2022-12-20T14:39:00;98802.60;;;9.34;73.52
62038;BME280;47991;42.974;12.082;2022-12-20T14:41:55;98798.87;;;9.40;73.32
62038;BME280;47991;42.974;12.082;2022-12-20T14:44:25;98798.35;;;9.38;74.00
62038;BME280;47991;42.974;12.082;2022-12-20T14:46:58;98797.39;;;9.22;74.63
62038;BME280;47991;42.974;12.082;2022-12-20T14:49:29;98800.83;;;9.08;74.75
62038;BME280;47991;42.974;12.082;2022-12-20T14:52:29;98797.67;;;9.05;74.38
62038;BME280;47991;42.974;12.082;2022-12-20T14:55:35;98794.85;;;9.03;75.49
62038;BME280;47991;42.974;12.082;2022-12-20T14:58:22;98799.52;;;8.87;75.95
62038;BME280;47991;42.974;12.082;2022-12-20T15:01:23;98795.67;;;8.80;75.49
62038;BME280;47991;42.974;12.082;2022-12-20T15:03:55;98795.88;;;8.77;75.33
62038;BME280;47991;42.974;12.082;2022-12-20T15:06:45;98794.98;;;8.78;74.68
62038;BME280;47991;42.974;12.082;2022-12-20T15:09:15;98792.15;;;8.81;74.74
62038;BME280;47991;42.974;12.082;2022-12-20T15:11:44;98791.29;;;8.77;74.94
62038;BME280;47991;42.974;12.082;2022-12-20T15:14:34;98791.47;;;8.77;74.99
62038;BME280;47991;42.974;12.082;2022-12-20T15:17:08;98791.64;;;8.76;75.42
62038;BME280;47991;42.974;12.082;2022-12-20T15:19:36;98793.44;;;8.71;74.93
62038;BME280;47991;42.974;12.082;2022-12-20T15:22:04;98794.31;;;8.71;74.77
62038;BME280;47991;42.974;12.082;2022-12-20T15:24:31;98789.77;;;8.62;74.91